sensor_id;sensor_type;location;lat;lon;timestamp;pressure;altitude;pressure_sealevel;temperature;humidity
30819;BME280;17546;42.674;23.284;2023-05-19T00:00:40;94966.78;;;18.67;48.20
30819;BME280;17546;42.674;23.284;2023-05-19T00:03:09;94959.44;;;18.77;48.23
30819;BME280;17546;42.674;23.284;2023-05-19T00:05:36;94938.63;;;18.72;47.92
30819;BME280;17546;42.674;23.284;2023-05-19T00:08:06;94957.13;;;18.89;47.69
30819;BME280;17546;42.674;23.284;2023-05-19T00:10:34;94960.50;;;18.87;47.46
30819;BME280;17546;42.674;23.284;2023-05-19T00:13:02;94937.22;;;18.79;47.30
30819;BME280;17546;42.674;23.284;2023-05-19T00:15:28;94955.81;;;19.11;46.91
30819;BME280;17546;42.674;23.284;2023-05-19T00:17:53;94934.56;;;18.94;47.05
30819;BME280;17546;42.674;23.284;2023-05-19T00:20:20;94950.28;;;18.97;47.17
30819;BME280;17546;42.674;23.284;2023-05-19T00:22:45;94935.78;;;18.86;47.37
30819;BME280;17546;42.674;23.284;2023-05-19T00:25:11;94921.03;;;18.72;47.28
30819;BME280;17546;42.674;23.284;2023-05-19T00:27:36;94942.22;;;18.94;47.36
30819;BME280;17546;42.674;23.284;2023-05-19T00:30:02;94933.00;;;18.72;47.58
30819;BME280;17546;42.674;23.284;2023-05-19T00:32:27;94934.41;;;18.79;47.51
30819;BME280;17546;42.674;23.284;2023-05-19T00:34:53;94932.44;;;18.87;47.44
30819;BME280;17546;42.674;23.284;2023-05-19T00:37:18;94926.06;;;19.08;46.94
30819;BME280;17546;42.674;23.284;2023-05-19T00:39:44;94943.66;;;19.37;46.81
30819;BME280;17546;42.674;23.284;2023-05-19T00:42:10;94941.88;;;19.47;46.78
30819;BME280;17546;42.674;23.284;2023-05-19T00:44:40;94936.41;;;19.41;46.78
30819;BME280;17546;42.674;23.284;2023-05-19T00:47:06;94933.56;;;19.34;46.41
30819;BME280;17546;42.674;23.284;2023-05-19T00:49:31;94925.44;;;19.51;46.40
30819;BME280;17546;42.674;23.284;2023-05-19T00:51:57;94908.09;;;19.39;46.33
30819;BME280;17546;42.674;23.284;2023-05-19T00:54:23;94908.19;;;19.47;46.41
30819;BME280;17546;42.674;23.284;2023-05-19T00:56:49;94923.91;;;19.50;46.33
30819;BME280;17546;42.674;23.284;2023-05-19T00:59:15;94899.03;;;19.26;46.53
30819;BME280;17546;42.674;23.284;2023-05-19T01:01:40;94928.38;;;18.96;46.78
30819;BME280;17546;42.674;23.284;2023-05-19T01:04:06;94933.09;;;19.01;46.89
30819;BME280;17546;42.674;23.284;2023-05-19T01:06:35;94922.63;;;18.81;47.08
30819;BME280;17546;42.674;23.284;2023-05-19T01:09:03;94932.88;;;18.78;47.56
30819;BME280;17546;42.674;23.284;2023-05-19T01:11:28;94914.47;;;18.01;48.55
30819;BME280;17546;42.674;23.284;2023-05-19T01:13:54;94914.22;;;18.12;48.68
30819;BME280;17546;42.674;23.284;2023-05-19T01:28:10;94934.94;;;18.77;47.86
30819;BME280;17546;42.674;23.284;2023-05-19T01:30:42;94928.22;;;18.81;47.20
30819;BME280;17546;42.674;23.284;2023-05-19T01:33:17;94939.97;;;18.92;47.13
30819;BME280;17546;42.674;23.284;2023-05-19T01:35:46;94930.75;;;18.71;47.10
30819;BME280;17546;42.674;23.284;2023-05-19T01:38:15;94910.84;;;18.82;46.66
30819;BME280;17546;42.674;23.284;2023-05-19T01:40:42;94926.25;;;19.10;46.69
30819;BME280;17546;42.674;23.284;2023-05-19T01:43:10;94939.22;;;18.92;47.34
30819;BME280;17546;42.674;23.284;2023-05-19T01:45:37;94926.34;;;18.96;46.68
30819;BME280;17546;42.674;23.284;2023-05-19T01:48:04;94940.50;;;18.91;46.85
30819;BME280;17546;42.674;23.284;2023-05-19T01:50:31;94935.97;;;19.09;46.54
30819;BME280;17546;42.674;23.284;2023-05-19T01:52:56;94937.91;;;19.14;46.65
30819;BME280;17546;42.674;23.284;2023-05-19T01:55:22;94934.53;;;19.15;46.72
30819;BME280;17546;42.674;23.284;2023-05-19T02:00:51;94960.91;;;18.57;47.59
30819;BME280;17546;42.674;23.284;2023-05-19T02:06:18;94948.38;;;18.58;47.69
30819;BME280;17546;42.674;23.284;2023-05-19T02:08:56;94952.34;;;18.63;47.63
30819;BME280;17546;42.674;23.284;2023-05-19T02:11:30;94946.84;;;18.70;47.27
30819;BME280;17546;42.674;23.284;2023-05-19T02:14:02;94947.16;;;18.67;47.47
30819;BME280;17546;42.674;23.284;2023-05-19T02:16:29;94952.59;;;18.51;47.59
30819;BME280;17546;42.674;23.284;2023-05-19T02:18:54;94933.00;;;18.17;48.31
30819;BME280;17546;42.674;23.284;2023-05-19T02:21:21;94952.63;;;18.17;48.66
30819;BME280;17546;42.674;23.284;2023-05-19T02:23:47;94943.41;;;18.30;48.21
30819;BME280;17546;42.674;23.284;2023-05-19T02:26:13;94960.41;;;17.98;48.83
30819;BME280;17546;42.674;23.284;2023-05-19T02:28:38;94931.75;;;17.91;48.63
30819;BME280;17546;42.674;23.284;2023-05-19T02:31:03;94936.03;;;18.06;48.53
30819;BME280;17546;42.674;23.284;2023-05-19T02:33:33;94930.66;;;17.94;48.65
30819;BME280;17546;42.674;23.284;2023-05-19T02:35:58;94928.50;;;17.87;49.03
30819;BME280;17546;42.674;23.284;2023-05-19T02:38:24;94927.22;;;17.75;49.02
30819;BME280;17546;42.674;23.284;2023-05-19T02:40:51;94952.84;;;18.06;49.06
30819;BME280;17546;42.674;23.284;2023-05-19T02:43:17;94944.88;;;17.56;50.00
30819;BME280;17546;42.674;23.284;2023-05-19T02:45:42;94927.22;;;17.62;49.56
30819;BME280;17546;42.674;23.284;2023-05-19T02:48:07;94961.91;;;17.85;49.43
30819;BME280;17546;42.674;23.284;2023-05-19T02:50:33;94938.22;;;17.46;50.08
30819;BME280;17546;42.674;23.284;2023-05-19T02:52:58;94957.38;;;17.55;50.11
30819;BME280;17546;42.674;23.284;2023-05-19T02:55:24;94958.03;;;17.75;49.73
30819;BME280;17546;42.674;23.284;2023-05-19T02:57:49;94959.31;;;18.01;49.33
30819;BME280;17546;42.674;23.284;2023-05-19T03:00:15;94955.41;;;17.50;50.46
30819;BME280;17546;42.674;23.284;2023-05-19T03:02:40;94937.78;;;17.69;49.85
30819;BME280;17546;42.674;23.284;2023-05-19T03:05:08;94951.06;;;17.82;49.75
30819;BME280;17546;42.674;23.284;2023-05-19T03:07:34;94965.66;;;18.28;48.96
30819;BME280;17546;42.674;23.284;2023-05-19T03:09:59;94962.97;;;18.09;49.13
30819;BME280;17546;42.674;23.284;2023-05-19T03:12:28;94964.50;;;17.83;49.75
30819;BME280;17546;42.674;23.284;2023-05-19T03:14:53;94977.00;;;17.95;49.51
30819;BME280;17546;42.674;23.284;2023-05-19T03:17:19;94956.72;;;17.49;50.50
30819;BME280;17546;42.674;23.284;2023-05-19T03:19:44;94959.31;;;17.34;50.86
30819;BME280;17546;42.674;23.284;2023-05-19T03:22:10;94973.22;;;17.40;50.75
30819;BME280;17546;42.674;23.284;2023-05-19T03:24:35;94944.22;;;17.37;50.70
30819;BME280;17546;42.674;23.284;2023-05-19T03:27:01;94973.03;;;17.91;50.09
30819;BME280;17546;42.674;23.284;2023-05-19T03:29:29;94964.03;;;17.79;49.90
30819;BME280;17546;42.674;23.284;2023-05-19T03:31:55;94950.06;;;17.92;49.58
30819;BME280;17546;42.674;23.284;2023-05-19T03:34:20;94964.91;;;18.14;49.33
30819;BME280;17546;42.674;23.284;2023-05-19T03:36:46;94967.84;;;17.55;50.38
30819;BME280;17546;42.674;23.284;2023-05-19T03:39:14;94969.03;;;18.00;49.89
30819;BME280;17546;42.674;23.284;2023-05-19T03:41:40;94970.97;;;17.91;49.98
30819;BME280;17546;42.674;23.284;2023-05-19T03:44:05;94975.28;;;18.06;49.47
30819;BME280;17546;42.674;23.284;2023-05-19T03:46:30;94976.28;;;18.29;49.27
30819;BME280;17546;42.674;23.284;2023-05-19T03:48:56;94958.13;;;18.09;49.30
30819;BME280;17546;42.674;23.284;2023-05-19T03:51:21;94975.00;;;18.30;48.99
30819;BME280;17546;42.674;23.284;2023-05-19T03:53:47;94973.00;;;18.04;49.65
30819;BME280;17546;42.674;23.284;2023-05-19T03:56:12;94964.94;;;17.87;49.79
30819;BME280;17546;42.674;23.284;2023-05-19T03:58:39;94971.50;;;18.03;49.42
30819;BME280;17546;42.674;23.284;2023-05-19T04:01:09;94959.97;;;17.67;50.12
30819;BME280;17546;42.674;23.284;2023-05-19T04:03:34;94988.66;;;17.86;50.09
30819;BME280;17546;42.674;23.284;2023-05-19T04:06:00;94966.09;;;18.05;49.79
30819;BME280;17546;42.674;23.284;2023-05-19T04:08:25;94981.06;;;18.08;49.60
30819;BME280;17546;42.674;23.284;2023-05-19T04:10:50;94983.44;;;18.30;49.49
30819;BME280;17546;42.674;23.284;2023-05-19T04:13:16;94986.03;;;18.15;49.78
30819;BME280;17546;42.674;23.284;2023-05-19T04:15:41;94967.84;;;18.08;49.59
30819;BME280;17546;42.674;23.284;2023-05-19T04:18:06;94981.72;;;18.14;49.78
30819;BME280;17546;42.674;23.284;2023-05-19T04:20:32;94962.13;;;17.74;50.47
30819;BME280;17546;42.674;23.284;2023-05-19T04:22:57;94984.22;;;18.04;50.09
30819;BME280;17546;42.674;23.284;2023-05-19T04:25:23;94978.25;;;18.34;49.22
30819;BME280;17546;42.674;23.284;2023-05-19T04:27:49;94986.56;;;18.13;49.91
30819;BME280;17546;42.674;23.284;2023-05-19T04:30:14;95002.91;;;18.36;49.59
30819;BME280;17546;42.674;23.284;2023-05-19T04:32:46;94982.94;;;18.53;49.08
30819;BME280;17546;42.674;23.284;2023-05-19T04:35:13;95001.75;;;18.79;48.93
30819;BME280;17546;42.674;23.284;2023-05-19T04:37:41;94980.34;;;18.55;49.10
30819;BME280;17546;42.674;23.284;2023-05-19T04:40:10;95002.94;;;18.70;49.19
30819;BME280;17546;42.674;23.284;2023-05-19T04:42:36;94985.88;;;18.34;49.54
30819;BME280;17546;42.674;23.284;2023-05-19T04:45:06;95003.81;;;18.31;49.64
30819;BME280;17546;42.674;23.284;2023-05-19T04:47:33;95006.97;;;18.01;50.35
30819;BME280;17546;42.674;23.284;2023-05-19T04:50:01;94999.59;;;18.37;49.68
30819;BME280;17546;42.674;23.284;2023-05-19T04:52:27;94991.63;;;18.63;49.32
30819;BME280;17546;42.674;23.284;2023-05-19T04:54:53;95005.28;;;18.45;49.52
30819;BME280;17546;42.674;23.284;2023-05-19T04:57:18;94993.38;;;17.65;50.69
30819;BME280;17546;42.674;23.284;2023-05-19T04:59:43;94983.47;;;18.04;50.39
30819;BME280;17546;42.674;23.284;2023-05-19T05:02:10;95001.56;;;18.16;50.75
30819;BME280;17546;42.674;23.284;2023-05-19T05:04:35;94980.75;;;17.71;51.29
30819;BME280;17546;42.674;23.284;2023-05-19T05:07:01;94996.81;;;18.11;51.11
30819;BME280;17546;42.674;23.284;2023-05-19T05:09:27;95011.91;;;18.08;50.81
30819;BME280;17546;42.674;23.284;2023-05-19T05:11:52;94992.28;;;18.08;50.52
30819;BME280;17546;42.674;23.284;2023-05-19T05:14:18;95001.53;;;18.29;50.74
30819;BME280;17546;42.674;23.284;2023-05-19T05:16:44;94993.97;;;18.37;50.56
30819;BME280;17546;42.674;23.284;2023-05-19T05:19:09;95004.97;;;18.35;50.52
30819;BME280;17546;42.674;23.284;2023-05-19T05:21:35;95011.44;;;18.44;49.89
30819;BME280;17546;42.674;23.284;2023-05-19T05:24:01;95007.94;;;18.64;49.64
30819;BME280;17546;42.674;23.284;2023-05-19T05:26:29;95010.19;;;18.05;50.70
30819;BME280;17546;42.674;23.284;2023-05-19T05:28:58;94991.47;;;17.86;51.05
30819;BME280;17546;42.674;23.284;2023-05-19T05:31:24;94979.88;;;17.37;51.97
30819;BME280;17546;42.674;23.284;2023-05-19T05:33:49;94984.94;;;17.51;52.14
30819;BME280;17546;42.674;23.284;2023-05-19T05:36:15;94987.53;;;17.76;51.49
30819;BME280;17546;42.674;23.284;2023-05-19T05:38:40;94982.38;;;17.80;51.42
30819;BME280;17546;42.674;23.284;2023-05-19T05:41:06;95019.56;;;18.82;49.49
30819;BME280;17546;42.674;23.284;2023-05-19T05:43:31;95017.13;;;18.99;49.39
30819;BME280;17546;42.674;23.284;2023-05-19T05:45:56;95005.28;;;19.14;48.70
30819;BME280;17546;42.674;23.284;2023-05-19T05:48:22;94985.56;;;19.27;48.48
30819;BME280;17546;42.674;23.284;2023-05-19T05:50:48;95009.50;;;19.49;48.25
30819;BME280;17546;42.674;23.284;2023-05-19T05:53:18;95009.19;;;19.32;48.22
30819;BME280;17546;42.674;23.284;2023-05-19T05:55:45;94994.56;;;19.33;48.19
30819;BME280;17546;42.674;23.284;2023-05-19T05:58:11;95004.22;;;19.25;48.54
30819;BME280;17546;42.674;23.284;2023-05-19T06:00:37;95014.75;;;19.53;48.09
30819;BME280;17546;42.674;23.284;2023-05-19T06:03:02;95025.63;;;19.77;47.52
30819;BME280;17546;42.674;23.284;2023-05-19T06:05:28;95034.38;;;19.95;47.36
30819;BME280;17546;42.674;23.284;2023-05-19T06:07:53;94997.06;;;19.66;47.57
30819;BME280;17546;42.674;23.284;2023-05-19T06:10:19;95009.00;;;19.58;47.67
30819;BME280;17546;42.674;23.284;2023-05-19T06:12:44;95013.09;;;19.57;47.63
30819;BME280;17546;42.674;23.284;2023-05-19T06:15:09;95034.84;;;19.57;47.79
30819;BME280;17546;42.674;23.284;2023-05-19T06:17:35;95031.81;;;19.55;48.01
30819;BME280;17546;42.674;23.284;2023-05-19T06:20:01;95028.91;;;20.18;46.36
30819;BME280;17546;42.674;23.284;2023-05-19T06:22:27;95008.50;;;19.89;47.34
30819;BME280;17546;42.674;23.284;2023-05-19T06:24:53;95028.97;;;19.97;47.70
30819;BME280;17546;42.674;23.284;2023-05-19T06:27:18;95019.63;;;20.38;46.63
30819;BME280;17546;42.674;23.284;2023-05-19T06:29:43;95014.78;;;20.47;46.20
30819;BME280;17546;42.674;23.284;2023-05-19T06:32:09;95022.66;;;21.00;46.50
30819;BME280;17546;42.674;23.284;2023-05-19T06:34:34;94993.16;;;20.78;44.89
30819;BME280;17546;42.674;23.284;2023-05-19T06:37:02;95024.78;;;21.30;44.88
30819;BME280;17546;42.674;23.284;2023-05-19T06:39:28;95031.97;;;21.54;43.80
30819;BME280;17546;42.674;23.284;2023-05-19T06:41:53;95028.00;;;21.88;43.59
30819;BME280;17546;42.674;23.284;2023-05-19T06:44:18;95034.50;;;22.21;43.18
30819;BME280;17546;42.674;23.284;2023-05-19T06:46:44;95039.03;;;22.17;41.61
30819;BME280;17546;42.674;23.284;2023-05-19T06:49:09;95040.81;;;22.60;41.12
30819;BME280;17546;42.674;23.284;2023-05-19T06:51:35;95023.09;;;22.67;40.53
30819;BME280;17546;42.674;23.284;2023-05-19T06:54:01;95039.34;;;22.92;39.98
30819;BME280;17546;42.674;23.284;2023-05-19T06:56:26;95038.03;;;23.26;39.10
30819;BME280;17546;42.674;23.284;2023-05-19T06:58:52;95038.94;;;23.61;39.05
30819;BME280;17546;42.674;23.284;2023-05-19T07:01:17;95053.94;;;23.71;39.26
30819;BME280;17546;42.674;23.284;2023-05-19T07:03:43;95040.19;;;23.93;39.29
30819;BME280;17546;42.674;23.284;2023-05-19T07:06:08;95039.84;;;23.89;38.05
30819;BME280;17546;42.674;23.284;2023-05-19T07:08:33;95037.38;;;23.93;37.77
30819;BME280;17546;42.674;23.284;2023-05-19T07:11:01;95062.75;;;24.01;37.44
30819;BME280;17546;42.674;23.284;2023-05-19T07:13:26;95049.06;;;24.32;37.18
30819;BME280;17546;42.674;23.284;2023-05-19T07:15:52;95055.84;;;23.94;37.36
30819;BME280;17546;42.674;23.284;2023-05-19T07:18:20;95050.03;;;24.52;37.68
30819;BME280;17546;42.674;23.284;2023-05-19T07:20:45;95021.09;;;24.71;37.93
30819;BME280;17546;42.674;23.284;2023-05-19T07:23:11;95054.94;;;25.13;35.27
30819;BME280;17546;42.674;23.284;2023-05-19T07:25:36;95047.81;;;24.43;36.34
30819;BME280;17546;42.674;23.284;2023-05-19T07:28:02;95062.22;;;24.89;36.41
30819;BME280;17546;42.674;23.284;2023-05-19T07:30:27;95048.69;;;24.98;36.79
30819;BME280;17546;42.674;23.284;2023-05-19T07:32:53;95038.34;;;25.10;36.63
30819;BME280;17546;42.674;23.284;2023-05-19T07:35:19;95056.44;;;25.42;35.80
30819;BME280;17546;42.674;23.284;2023-05-19T07:37:50;95063.75;;;25.82;35.69
30819;BME280;17546;42.674;23.284;2023-05-19T07:40:15;95048.94;;;25.36;35.69
30819;BME280;17546;42.674;23.284;2023-05-19T07:42:41;95057.72;;;25.58;35.82
30819;BME280;17546;42.674;23.284;2023-05-19T07:45:08;95047.44;;;25.72;35.96
30819;BME280;17546;42.674;23.284;2023-05-19T07:47:33;95048.81;;;25.71;35.44
30819;BME280;17546;42.674;23.284;2023-05-19T07:49:58;95044.09;;;25.56;34.91
30819;BME280;17546;42.674;23.284;2023-05-19T07:52:24;95060.47;;;25.75;35.98
30819;BME280;17546;42.674;23.284;2023-05-19T07:54:49;95051.78;;;25.73;35.13
30819;BME280;17546;42.674;23.284;2023-05-19T07:57:15;95038.50;;;25.76;35.18
30819;BME280;17546;42.674;23.284;2023-05-19T07:59:40;95048.63;;;26.06;35.34
30819;BME280;17546;42.674;23.284;2023-05-19T08:02:06;95035.75;;;25.95;34.66
30819;BME280;17546;42.674;23.284;2023-05-19T08:04:31;95044.44;;;26.07;34.36
30819;BME280;17546;42.674;23.284;2023-05-19T08:06:57;95042.06;;;26.13;33.66
30819;BME280;17546;42.674;23.284;2023-05-19T08:09:23;95039.25;;;26.33;33.37
30819;BME280;17546;42.674;23.284;2023-05-19T08:11:48;95041.53;;;26.64;33.25
30819;BME280;17546;42.674;23.284;2023-05-19T08:14:14;95027.50;;;26.66;33.65
30819;BME280;17546;42.674;23.284;2023-05-19T08:16:39;95047.47;;;27.07;33.39
30819;BME280;17546;42.674;23.284;2023-05-19T08:19:07;95046.72;;;27.06;33.26
30819;BME280;17546;42.674;23.284;2023-05-19T08:21:33;95037.72;;;27.29;33.72
30819;BME280;17546;42.674;23.284;2023-05-19T08:24:02;95057.78;;;27.72;34.86
30819;BME280;17546;42.674;23.284;2023-05-19T08:26:28;95054.13;;;27.40;32.15
30819;BME280;17546;42.674;23.284;2023-05-19T08:28:54;95031.81;;;27.56;32.03
30819;BME280;17546;42.674;23.284;2023-05-19T08:31:19;95048.03;;;27.85;32.83
30819;BME280;17546;42.674;23.284;2023-05-19T08:33:45;95044.97;;;27.93;33.27
30819;BME280;17546;42.674;23.284;2023-05-19T08:36:10;95033.13;;;27.55;32.35
30819;BME280;17546;42.674;23.284;2023-05-19T08:38:36;95037.06;;;27.81;32.23
30819;BME280;17546;42.674;23.284;2023-05-19T08:41:01;95028.53;;;27.81;31.71
30819;BME280;17546;42.674;23.284;2023-05-19T08:43:27;95031.63;;;27.04;32.10
30819;BME280;17546;42.674;23.284;2023-05-19T08:45:53;95040.56;;;27.29;32.06
30819;BME280;17546;42.674;23.284;2023-05-19T08:48:20;95043.50;;;27.51;33.15
30819;BME280;17546;42.674;23.284;2023-05-19T08:53:22;95032.22;;;28.25;33.45
30819;BME280;17546;42.674;23.284;2023-05-19T08:56:15;95045.38;;;28.73;33.24
30819;BME280;17546;42.674;23.284;2023-05-19T08:58:43;95041.41;;;28.78;32.42
30819;BME280;17546;42.674;23.284;2023-05-19T09:01:09;95026.91;;;28.10;31.26
30819;BME280;17546;42.674;23.284;2023-05-19T09:03:38;95026.16;;;28.31;31.39
30819;BME280;17546;42.674;23.284;2023-05-19T09:06:07;95025.72;;;28.89;32.21
30819;BME280;17546;42.674;23.284;2023-05-19T09:08:33;95036.84;;;28.85;30.61
30819;BME280;17546;42.674;23.284;2023-05-19T09:10:59;95023.44;;;28.76;31.95
30819;BME280;17546;42.674;23.284;2023-05-19T09:13:25;95009.13;;;29.31;30.39
30819;BME280;17546;42.674;23.284;2023-05-19T09:15:51;95021.19;;;29.76;31.71
30819;BME280;17546;42.674;23.284;2023-05-19T09:18:17;95015.25;;;30.07;31.54
30819;BME280;17546;42.674;23.284;2023-05-19T09:20:44;94991.53;;;29.93;31.04
30819;BME280;17546;42.674;23.284;2023-05-19T09:23:14;94999.69;;;30.11;30.48
30819;BME280;17546;42.674;23.284;2023-05-19T09:25:49;95020.56;;;30.13;31.54
30819;BME280;17546;42.674;23.284;2023-05-19T09:28:28;94989.56;;;29.72;28.92
30819;BME280;17546;42.674;23.284;2023-05-19T09:33:28;95003.41;;;29.54;29.29
30819;BME280;17546;42.674;23.284;2023-05-19T09:35:54;95011.28;;;30.01;30.54
30819;BME280;17546;42.674;23.284;2023-05-19T09:38:23;94999.75;;;29.75;29.67
30819;BME280;17546;42.674;23.284;2023-05-19T09:40:50;94994.50;;;29.72;29.96
30819;BME280;17546;42.674;23.284;2023-05-19T09:43:16;94993.88;;;29.85;29.49
30819;BME280;17546;42.674;23.284;2023-05-19T09:45:41;94990.78;;;29.69;29.52
30819;BME280;17546;42.674;23.284;2023-05-19T09:48:07;95002.09;;;29.91;28.78
30819;BME280;17546;42.674;23.284;2023-05-19T09:50:32;95005.88;;;29.36;28.78
30819;BME280;17546;42.674;23.284;2023-05-19T09:52:58;94992.03;;;29.66;29.34
30819;BME280;17546;42.674;23.284;2023-05-19T09:55:29;95004.91;;;29.67;30.02
30819;BME280;17546;42.674;23.284;2023-05-19T09:57:57;94993.66;;;29.93;29.58
30819;BME280;17546;42.674;23.284;2023-05-19T10:00:25;94987.63;;;30.24;29.11
30819;BME280;17546;42.674;23.284;2023-05-19T10:02:51;95001.63;;;30.43;29.56
30819;BME280;17546;42.674;23.284;2023-05-19T10:05:17;94992.75;;;30.02;29.98
30819;BME280;17546;42.674;23.284;2023-05-19T10:07:46;94973.28;;;29.86;29.05
30819;BME280;17546;42.674;23.284;2023-05-19T10:10:14;94974.16;;;30.01;29.34
30819;BME280;17546;42.674;23.284;2023-05-19T10:12:40;94975.97;;;30.20;29.87
30819;BME280;17546;42.674;23.284;2023-05-19T10:15:16;94989.28;;;29.68;27.96
30819;BME280;17546;42.674;23.284;2023-05-19T10:17:43;94989.06;;;29.88;28.07
30819;BME280;17546;42.674;23.284;2023-05-19T10:20:14;94991.88;;;30.11;28.67
30819;BME280;17546;42.674;23.284;2023-05-19T10:22:44;94964.75;;;30.36;28.57
30819;BME280;17546;42.674;23.284;2023-05-19T10:25:11;94981.25;;;30.75;29.28
30819;BME280;17546;42.674;23.284;2023-05-19T10:27:48;94980.00;;;30.52;27.96
30819;BME280;17546;42.674;23.284;2023-05-19T10:30:20;94992.66;;;30.49;28.23
30819;BME280;17546;42.674;23.284;2023-05-19T10:32:50;94984.09;;;29.76;26.99
30819;BME280;17546;42.674;23.284;2023-05-19T10:38:04;94959.50;;;29.48;28.15
30819;BME280;17546;42.674;23.284;2023-05-19T10:40:52;94959.44;;;29.00;28.69
30819;BME280;17546;42.674;23.284;2023-05-19T10:45:53;94974.53;;;28.91;28.34
30819;BME280;17546;42.674;23.284;2023-05-19T10:48:19;94946.28;;;28.29;28.09
30819;BME280;17546;42.674;23.284;2023-05-19T10:50:46;94913.16;;;28.67;29.46
30819;BME280;17546;42.674;23.284;2023-05-19T10:53:16;94952.94;;;29.33;28.80
30819;BME280;17546;42.674;23.284;2023-05-19T10:55:53;94953.81;;;29.36;28.63
30819;BME280;17546;42.674;23.284;2023-05-19T11:01:13;94939.16;;;29.30;26.48
30819;BME280;17546;42.674;23.284;2023-05-19T11:03:53;94960.44;;;29.05;27.98
30819;BME280;17546;42.674;23.284;2023-05-19T11:06:31;94960.25;;;29.60;27.21
30819;BME280;17546;42.674;23.284;2023-05-19T11:08:57;94956.53;;;29.93;28.56
30819;BME280;17546;42.674;23.284;2023-05-19T11:11:26;94949.59;;;29.84;27.49
30819;BME280;17546;42.674;23.284;2023-05-19T11:13:55;94943.00;;;29.11;27.43
30819;BME280;17546;42.674;23.284;2023-05-19T11:16:27;94955.94;;;28.90;27.50
30819;BME280;17546;42.674;23.284;2023-05-19T11:18:59;94953.16;;;29.14;27.36
30819;BME280;17546;42.674;23.284;2023-05-19T11:21:49;94956.00;;;29.25;26.80
30819;BME280;17546;42.674;23.284;2023-05-19T11:24:42;94949.09;;;29.29;28.51
30819;BME280;17546;42.674;23.284;2023-05-19T11:29:43;94943.88;;;29.49;29.00
30819;BME280;17546;42.674;23.284;2023-05-19T11:32:09;94931.97;;;29.40;28.09
30819;BME280;17546;42.674;23.284;2023-05-19T11:34:36;94947.97;;;29.22;26.56
30819;BME280;17546;42.674;23.284;2023-05-19T11:37:03;94950.50;;;28.94;26.53
30819;BME280;17546;42.674;23.284;2023-05-19T11:39:30;94915.44;;;27.60;26.53
30819;BME280;17546;42.674;23.284;2023-05-19T11:41:56;94942.72;;;28.61;27.30
30819;BME280;17546;42.674;23.284;2023-05-19T11:44:21;94934.28;;;28.52;28.12
30819;BME280;17546;42.674;23.284;2023-05-19T11:46:47;94930.59;;;28.73;28.76
30819;BME280;17546;42.674;23.284;2023-05-19T11:49:14;94927.66;;;28.82;29.07
30819;BME280;17546;42.674;23.284;2023-05-19T11:51:42;94947.81;;;28.63;27.78
30819;BME280;17546;42.674;23.284;2023-05-19T11:54:09;94930.69;;;28.30;29.06
30819;BME280;17546;42.674;23.284;2023-05-19T11:56:39;94956.50;;;28.43;29.02
30819;BME280;17546;42.674;23.284;2023-05-19T11:59:05;94946.81;;;27.72;29.44
30819;BME280;17546;42.674;23.284;2023-05-19T12:01:31;94951.56;;;27.48;32.53
30819;BME280;17546;42.674;23.284;2023-05-19T12:03:58;94984.19;;;27.88;33.27
30819;BME280;17546;42.674;23.284;2023-05-19T12:06:25;94991.34;;;27.17;35.33
30819;BME280;17546;42.674;23.284;2023-05-19T12:08:51;94977.19;;;26.97;34.58
30819;BME280;17546;42.674;23.284;2023-05-19T12:11:17;95000.84;;;26.51;36.50
30819;BME280;17546;42.674;23.284;2023-05-19T12:13:43;95000.81;;;25.93;37.36
30819;BME280;17546;42.674;23.284;2023-05-19T12:16:08;94985.28;;;25.47;37.16
30819;BME280;17546;42.674;23.284;2023-05-19T12:18:37;95006.81;;;25.23;36.86
30819;BME280;17546;42.674;23.284;2023-05-19T12:21:04;95015.59;;;25.54;37.33
30819;BME280;17546;42.674;23.284;2023-05-19T12:23:31;95010.97;;;25.49;38.40
30819;BME280;17546;42.674;23.284;2023-05-19T12:25:58;95012.91;;;25.56;38.74
30819;BME280;17546;42.674;23.284;2023-05-19T12:28:23;95007.75;;;24.81;39.73
30819;BME280;17546;42.674;23.284;2023-05-19T12:30:50;95010.75;;;24.31;40.13
30819;BME280;17546;42.674;23.284;2023-05-19T12:33:17;95004.72;;;23.24;41.00
30819;BME280;17546;42.674;23.284;2023-05-19T12:35:44;94989.59;;;23.04;41.14
30819;BME280;17546;42.674;23.284;2023-05-19T12:38:10;94980.56;;;23.31;41.02
30819;BME280;17546;42.674;23.284;2023-05-19T12:40:36;95004.31;;;23.53;41.24
30819;BME280;17546;42.674;23.284;2023-05-19T12:43:04;94999.97;;;23.52;42.33
30819;BME280;17546;42.674;23.284;2023-05-19T12:45:34;94968.53;;;22.65;42.47
30819;BME280;17546;42.674;23.284;2023-05-19T12:48:12;94964.63;;;23.43;41.32
30819;BME280;17546;42.674;23.284;2023-05-19T12:50:40;94965.09;;;23.57;41.42
30819;BME280;17546;42.674;23.284;2023-05-19T12:53:13;94973.44;;;23.72;40.46
30819;BME280;17546;42.674;23.284;2023-05-19T12:55:43;94955.50;;;23.95;39.72
30819;BME280;17546;42.674;23.284;2023-05-19T12:58:14;94921.94;;;23.74;38.65
30819;BME280;17546;42.674;23.284;2023-05-19T13:00:44;94954.91;;;24.31;39.07
30819;BME280;17546;42.674;23.284;2023-05-19T13:03:20;94951.31;;;24.31;39.19
30819;BME280;17546;42.674;23.284;2023-05-19T13:05:48;94943.34;;;24.20;36.64
30819;BME280;17546;42.674;23.284;2023-05-19T13:08:18;94933.44;;;24.11;36.51
30819;BME280;17546;42.674;23.284;2023-05-19T13:10:45;94952.56;;;24.55;35.91
30819;BME280;17546;42.674;23.284;2023-05-19T13:13:12;94951.41;;;24.85;35.95
30819;BME280;17546;42.674;23.284;2023-05-19T13:15:42;94940.19;;;25.05;35.31
30819;BME280;17546;42.674;23.284;2023-05-19T13:18:09;94935.13;;;25.13;35.13
30819;BME280;17546;42.674;23.284;2023-05-19T13:20:36;94926.91;;;24.80;34.33
30819;BME280;17546;42.674;23.284;2023-05-19T13:23:03;94949.81;;;25.19;34.77